Airfield :
LOGIN :

Register | Disclaimer

   EN    FR    IT 

 










Legend :    VFR   Marginal VFR   IFR   Intensive IFR   Very Intensive IFR
Visi :
Ceiling :
>= 8 km
>= 3000ft
5 to 8 km
1000 to 3000 ft
1500m to 5 km
500 to 1000 ft
800 to 1500m
200 to 500 ft
< 800m
< 200 ft
Symbols :   Thunderstorms  Fog  Heavy snow  Heavy precipitations  Wind > 20 kt
SIGMETs :     Misc.  Thunderstorms  Icing  Turbulence  Mountain Waves  Volcanic Ashes







- Airport Elevation : 83 ft
- IATA code : LHR
- Download approach charts


EGLL - London Heathrow

CURRENT METAR :
  • 210650Z AUTO 17004KT 140V260 4500 BR FEW031 M02/M02 Q1025 NOSIG

EXPIRED METARs :
  • 210620Z AUTO 16005KT 3800 BR SCT010 BKN032 M02/M03 Q1025 TEMPO BKN010
  • 210550Z AUTO 15004KT 120V190 4000 BR SCT010 OVC032 M01/M02 Q1025 NOSIG
  • 210520Z AUTO VRB03KT 3700 BR BKN010 BKN034 M02/M02 Q1024 TEMPO SCT010
  • 210450Z AUTO VRB03KT 3800 BR BKN010 M01/M02 Q1024 TEMPO BKN009
  • 210420Z AUTO 16003KT 3800 BR BKN010 M02/M02 Q1024

TAF TAF EGLL
Valid from the 21 at 06:00 until the 22 at 12:00 UTC


210452Z 2106/2212 VRB03KT 3500 BR SCT012
TEMPO 2106/2111 5000 HZ BKN012
PROB30
TEMPO 2106/2110 BKN008
BECMG 2111/2114 7000 NSW
BECMG 2117/2120 19010KT 9999
TEMPO 2123/2205 4000 RA BKN008
BECMG 2202/2205 28008KT
No reported NOTAMs for that airfield.



MET'MAP, your aeronautical weather chart ! - Copyright ORBIFLY December 2007 - Disclaimer

ORBIFLY MET'MAP TEAM :

Programming & Development : Alexandra Zaïnal
Concept & Development : Baudouin d'Aumeries
Co-Development & Prog : Marc-Olivier Méhu
Technical & hardware support : Manuel Goepfert

Contact : metmap@orbifly.com




SOURCES & CREDITS :

   NOAA